sensor_id;sensor_type;location;lat;lon;timestamp;noise_LAeq;noise_LA_min;noise_LA_max;noise_LA01;noise_LA95
81493;Laerm;70900;51.798;10.954;2023-09-19T00:00:17;32.94;26.71;40.48;;
81493;Laerm;70900;51.798;10.954;2023-09-19T00:02:45;35.48;28.46;43.28;;
81493;Laerm;70900;51.798;10.954;2023-09-19T00:05:12;36.09;30.59;40.94;;
81493;Laerm;70900;51.798;10.954;2023-09-19T00:07:39;37.92;32.82;46.25;;
81493;Laerm;70900;51.798;10.954;2023-09-19T00:10:05;37.25;33.13;43.62;;
81493;Laerm;70900;51.798;10.954;2023-09-19T00:12:31;38.84;33.52;47.92;;
81493;Laerm;70900;51.798;10.954;2023-09-19T00:14:56;42.70;35.52;49.39;;
81493;Laerm;70900;51.798;10.954;2023-09-19T00:17:22;42.14;35.91;49.52;;
81493;Laerm;70900;51.798;10.954;2023-09-19T00:19:47;41.37;32.18;48.68;;
81493;Laerm;70900;51.798;10.954;2023-09-19T00:22:16;38.07;32.89;45.30;;
81493;Laerm;70900;51.798;10.954;2023-09-19T00:24:44;37.33;33.06;44.49;;
81493;Laerm;70900;51.798;10.954;2023-09-19T00:27:09;37.35;31.33;43.86;;
81493;Laerm;70900;51.798;10.954;2023-09-19T00:29:34;35.94;31.20;41.77;;
81493;Laerm;70900;51.798;10.954;2023-09-19T00:32:00;34.22;27.61;41.15;;
81493;Laerm;70900;51.798;10.954;2023-09-19T00:34:25;29.28;25.33;37.57;;
81493;Laerm;70900;51.798;10.954;2023-09-19T00:36:51;26.99;24.82;33.91;;
81493;Laerm;70900;51.798;10.954;2023-09-19T00:39:18;32.12;25.31;51.87;;
81493;Laerm;70900;51.798;10.954;2023-09-19T00:41:45;28.46;26.42;32.98;;
81493;Laerm;70900;51.798;10.954;2023-09-19T00:44:10;28.95;26.49;36.97;;
81493;Laerm;70900;51.798;10.954;2023-09-19T00:46:37;30.56;26.16;49.58;;
81493;Laerm;70900;51.798;10.954;2023-09-19T00:49:02;31.50;27.34;37.33;;
81493;Laerm;70900;51.798;10.954;2023-09-19T00:51:28;31.29;27.89;36.03;;
81493;Laerm;70900;51.798;10.954;2023-09-19T00:53:53;32.09;29.55;34.99;;
81493;Laerm;70900;51.798;10.954;2023-09-19T00:56:19;30.15;26.21;37.34;;
81493;Laerm;70900;51.798;10.954;2023-09-19T00:58:44;29.37;26.45;39.71;;
81493;Laerm;70900;51.798;10.954;2023-09-19T01:01:11;30.28;26.92;40.22;;
81493;Laerm;70900;51.798;10.954;2023-09-19T01:09:49;35.72;25.34;51.66;;
81493;Laerm;70900;51.798;10.954;2023-09-19T01:12:48;35.66;28.43;45.21;;
81493;Laerm;70900;51.798;10.954;2023-09-19T01:30:21;34.10;29.04;43.67;;
81493;Laerm;70900;51.798;10.954;2023-09-19T01:33:19;33.45;29.70;42.47;;
81493;Laerm;70900;51.798;10.954;2023-09-19T01:36:07;38.24;30.34;53.06;;
81493;Laerm;70900;51.798;10.954;2023-09-19T01:39:01;36.84;30.19;43.88;;
81493;Laerm;70900;51.798;10.954;2023-09-19T01:50:41;41.45;30.84;52.47;;
81493;Laerm;70900;51.798;10.954;2023-09-19T01:53:41;48.80;34.27;65.16;;
81493;Laerm;70900;51.798;10.954;2023-09-19T01:56:32;44.36;33.33;53.14;;
81493;Laerm;70900;51.798;10.954;2023-09-19T01:59:23;43.23;36.48;49.10;;
81493;Laerm;70900;51.798;10.954;2023-09-19T02:02:23;45.24;37.95;55.65;;
81493;Laerm;70900;51.798;10.954;2023-09-19T02:05:08;50.96;42.23;59.21;;
81493;Laerm;70900;51.798;10.954;2023-09-19T02:10:46;44.09;36.04;50.62;;
81493;Laerm;70900;51.798;10.954;2023-09-19T02:13:37;42.60;35.04;48.70;;
81493;Laerm;70900;51.798;10.954;2023-09-19T02:16:27;44.46;33.71;50.33;;
81493;Laerm;70900;51.798;10.954;2023-09-19T02:22:26;42.91;33.21;50.38;;
81493;Laerm;70900;51.798;10.954;2023-09-19T02:25:09;41.64;35.28;47.32;;
81493;Laerm;70900;51.798;10.954;2023-09-19T02:27:44;41.26;34.65;48.16;;
81493;Laerm;70900;51.798;10.954;2023-09-19T02:30:39;45.49;39.14;51.57;;
81493;Laerm;70900;51.798;10.954;2023-09-19T02:33:04;40.89;36.00;48.63;;
81493;Laerm;70900;51.798;10.954;2023-09-19T02:35:30;44.79;37.91;50.64;;
81493;Laerm;70900;51.798;10.954;2023-09-19T02:38:00;45.23;36.14;54.35;;
81493;Laerm;70900;51.798;10.954;2023-09-19T02:40:25;45.64;35.28;60.00;;
81493;Laerm;70900;51.798;10.954;2023-09-19T02:42:54;46.20;37.55;54.63;;
81493;Laerm;70900;51.798;10.954;2023-09-19T02:45:19;45.97;38.20;54.24;;
81493;Laerm;70900;51.798;10.954;2023-09-19T02:47:45;51.49;40.63;66.37;;
81493;Laerm;70900;51.798;10.954;2023-09-19T02:50:11;47.02;39.03;57.48;;
81493;Laerm;70900;51.798;10.954;2023-09-19T02:52:37;46.81;37.59;56.63;;
81493;Laerm;70900;51.798;10.954;2023-09-19T02:55:03;44.46;37.68;52.77;;
81493;Laerm;70900;51.798;10.954;2023-09-19T02:57:30;41.09;35.39;46.60;;
81493;Laerm;70900;51.798;10.954;2023-09-19T02:59:59;39.02;35.64;43.31;;
81493;Laerm;70900;51.798;10.954;2023-09-19T03:02:26;41.46;36.37;48.14;;
81493;Laerm;70900;51.798;10.954;2023-09-19T03:04:53;39.88;35.99;45.70;;
81493;Laerm;70900;51.798;10.954;2023-09-19T03:07:18;40.09;34.98;49.71;;
81493;Laerm;70900;51.798;10.954;2023-09-19T03:09:44;42.34;35.40;53.88;;
81493;Laerm;70900;51.798;10.954;2023-09-19T03:12:10;50.58;36.99;66.70;;
81493;Laerm;70900;51.798;10.954;2023-09-19T03:14:35;42.42;34.42;48.50;;
81493;Laerm;70900;51.798;10.954;2023-09-19T03:17:01;39.71;34.28;50.02;;
81493;Laerm;70900;51.798;10.954;2023-09-19T03:19:29;40.37;35.82;46.86;;
81493;Laerm;70900;51.798;10.954;2023-09-19T03:21:55;42.43;34.44;57.36;;
81493;Laerm;70900;51.798;10.954;2023-09-19T03:24:22;55.42;33.70;69.10;;
81493;Laerm;70900;51.798;10.954;2023-09-19T03:26:48;48.82;33.02;66.02;;
81493;Laerm;70900;51.798;10.954;2023-09-19T03:29:13;49.44;32.99;62.35;;
81493;Laerm;70900;51.798;10.954;2023-09-19T03:31:39;41.52;33.11;56.14;;
81493;Laerm;70900;51.798;10.954;2023-09-19T03:34:04;38.78;33.24;50.34;;
81493;Laerm;70900;51.798;10.954;2023-09-19T03:36:30;45.10;38.74;52.29;;
81493;Laerm;70900;51.798;10.954;2023-09-19T03:38:55;51.90;36.81;68.25;;
81493;Laerm;70900;51.798;10.954;2023-09-19T03:41:21;46.43;36.50;57.62;;
81493;Laerm;70900;51.798;10.954;2023-09-19T03:43:46;43.28;36.46;64.47;;
81493;Laerm;70900;51.798;10.954;2023-09-19T03:46:12;53.20;39.51;67.80;;
81493;Laerm;70900;51.798;10.954;2023-09-19T03:48:40;51.76;36.37;67.88;;
81493;Laerm;70900;51.798;10.954;2023-09-19T03:51:05;45.24;35.34;59.62;;
81493;Laerm;70900;51.798;10.954;2023-09-19T03:53:30;50.98;34.32;65.07;;
81493;Laerm;70900;51.798;10.954;2023-09-19T03:55:56;47.54;33.13;61.88;;
81493;Laerm;70900;51.798;10.954;2023-09-19T03:58:22;53.19;34.95;68.20;;
81493;Laerm;70900;51.798;10.954;2023-09-19T04:00:47;53.95;33.35;72.42;;
81493;Laerm;70900;51.798;10.954;2023-09-19T04:03:14;38.06;34.67;43.88;;
81493;Laerm;70900;51.798;10.954;2023-09-19T04:05:44;36.65;32.93;41.86;;
81493;Laerm;70900;51.798;10.954;2023-09-19T04:08:10;48.10;33.71;61.26;;
81493;Laerm;70900;51.798;10.954;2023-09-19T04:10:36;44.54;36.21;53.18;;
81493;Laerm;70900;51.798;10.954;2023-09-19T04:13:01;48.62;36.58;64.70;;
81493;Laerm;70900;51.798;10.954;2023-09-19T04:15:26;39.74;35.41;51.06;;
81493;Laerm;70900;51.798;10.954;2023-09-19T04:17:52;47.77;36.04;60.58;;
81493;Laerm;70900;51.798;10.954;2023-09-19T04:20:18;43.69;36.37;49.47;;
81493;Laerm;70900;51.798;10.954;2023-09-19T04:22:45;48.68;36.02;62.65;;
81493;Laerm;70900;51.798;10.954;2023-09-19T04:25:10;55.09;38.43;71.09;;
81493;Laerm;70900;51.798;10.954;2023-09-19T04:27:35;50.33;39.18;65.58;;
81493;Laerm;70900;51.798;10.954;2023-09-19T04:30:01;54.00;40.45;66.66;;
81493;Laerm;70900;51.798;10.954;2023-09-19T04:32:28;54.90;38.00;69.61;;
81493;Laerm;70900;51.798;10.954;2023-09-19T04:34:54;59.22;41.48;74.31;;
81493;Laerm;70900;51.798;10.954;2023-09-19T04:37:24;50.40;37.56;65.42;;
81493;Laerm;70900;51.798;10.954;2023-09-19T04:39:50;54.96;36.33;64.45;;
81493;Laerm;70900;51.798;10.954;2023-09-19T04:42:15;58.02;36.76;74.99;;
81493;Laerm;70900;51.798;10.954;2023-09-19T04:44:40;54.24;37.35;66.59;;
81493;Laerm;70900;51.798;10.954;2023-09-19T04:47:07;57.41;37.24;70.80;;
81493;Laerm;70900;51.798;10.954;2023-09-19T04:49:32;55.30;37.70;68.31;;
81493;Laerm;70900;51.798;10.954;2023-09-19T04:51:57;56.69;35.33;69.73;;
81493;Laerm;70900;51.798;10.954;2023-09-19T04:54:23;59.55;35.23;74.30;;
81493;Laerm;70900;51.798;10.954;2023-09-19T04:56:48;47.47;35.88;59.36;;
81493;Laerm;70900;51.798;10.954;2023-09-19T04:59:13;55.80;37.17;68.17;;
81493;Laerm;70900;51.798;10.954;2023-09-19T05:01:40;58.11;37.09;69.98;;
81493;Laerm;70900;51.798;10.954;2023-09-19T05:04:05;56.71;38.22;70.82;;
81493;Laerm;70900;51.798;10.954;2023-09-19T05:06:30;59.38;37.92;75.60;;
81493;Laerm;70900;51.798;10.954;2023-09-19T05:08:56;54.37;37.55;67.02;;
81493;Laerm;70900;51.798;10.954;2023-09-19T05:11:21;56.01;38.76;67.49;;
81493;Laerm;70900;51.798;10.954;2023-09-19T05:13:47;54.57;38.66;66.70;;
81493;Laerm;70900;51.798;10.954;2023-09-19T05:16:14;63.20;42.44;80.17;;
81493;Laerm;70900;51.798;10.954;2023-09-19T05:18:41;56.02;39.12;70.79;;
81493;Laerm;70900;51.798;10.954;2023-09-19T05:21:07;55.22;39.76;72.91;;
81493;Laerm;70900;51.798;10.954;2023-09-19T05:23:33;55.66;39.46;66.47;;
81493;Laerm;70900;51.798;10.954;2023-09-19T05:25:58;60.54;43.56;75.18;;
81493;Laerm;70900;51.798;10.954;2023-09-19T05:28:25;59.74;42.13;69.95;;
81493;Laerm;70900;51.798;10.954;2023-09-19T05:30:50;60.57;43.43;70.88;;
81493;Laerm;70900;51.798;10.954;2023-09-19T05:33:16;61.68;42.30;75.29;;
81493;Laerm;70900;51.798;10.954;2023-09-19T05:35:43;60.24;40.45;71.25;;
81493;Laerm;70900;51.798;10.954;2023-09-19T05:38:08;55.09;41.13;66.26;;
81493;Laerm;70900;51.798;10.954;2023-09-19T05:40:34;55.54;39.45;68.45;;
81493;Laerm;70900;51.798;10.954;2023-09-19T05:43:00;50.19;39.44;64.28;;
81493;Laerm;70900;51.798;10.954;2023-09-19T05:45:25;52.58;39.13;66.65;;
81493;Laerm;70900;51.798;10.954;2023-09-19T05:47:52;53.57;39.47;70.23;;
81493;Laerm;70900;51.798;10.954;2023-09-19T05:50:22;60.26;39.20;75.97;;
81493;Laerm;70900;51.798;10.954;2023-09-19T05:52:53;49.59;36.93;67.08;;
81493;Laerm;70900;51.798;10.954;2023-09-19T05:55:18;57.85;39.24;71.27;;
81493;Laerm;70900;51.798;10.954;2023-09-19T05:57:49;55.41;40.61;68.84;;
81493;Laerm;70900;51.798;10.954;2023-09-19T06:00:15;58.37;39.34;70.25;;
81493;Laerm;70900;51.798;10.954;2023-09-19T06:02:43;54.33;41.05;70.69;;
81493;Laerm;70900;51.798;10.954;2023-09-19T06:05:09;53.39;39.99;68.53;;
81493;Laerm;70900;51.798;10.954;2023-09-19T06:07:35;48.56;38.18;69.90;;
81493;Laerm;70900;51.798;10.954;2023-09-19T06:10:05;44.85;38.46;58.78;;
81493;Laerm;70900;51.798;10.954;2023-09-19T06:12:31;57.72;38.44;72.89;;
81493;Laerm;70900;51.798;10.954;2023-09-19T06:14:58;51.12;38.77;63.66;;
81493;Laerm;70900;51.798;10.954;2023-09-19T06:17:24;54.52;37.99;68.84;;
81493;Laerm;70900;51.798;10.954;2023-09-19T06:19:49;50.63;37.84;65.21;;
81493;Laerm;70900;51.798;10.954;2023-09-19T06:22:16;51.31;38.28;65.47;;
81493;Laerm;70900;51.798;10.954;2023-09-19T06:24:43;49.00;37.56;64.72;;
81493;Laerm;70900;51.798;10.954;2023-09-19T06:27:09;55.05;38.08;68.24;;
81493;Laerm;70900;51.798;10.954;2023-09-19T06:29:34;58.92;39.96;75.85;;
81493;Laerm;70900;51.798;10.954;2023-09-19T06:32:06;57.86;37.87;77.08;;
81493;Laerm;70900;51.798;10.954;2023-09-19T06:34:31;55.87;38.76;67.94;;
81493;Laerm;70900;51.798;10.954;2023-09-19T06:36:58;57.02;36.52;71.32;;
81493;Laerm;70900;51.798;10.954;2023-09-19T06:39:23;59.67;37.25;75.62;;
81493;Laerm;70900;51.798;10.954;2023-09-19T06:41:51;43.30;36.45;52.50;;
81493;Laerm;70900;51.798;10.954;2023-09-19T06:44:18;50.03;34.84;66.01;;
81493;Laerm;70900;51.798;10.954;2023-09-19T06:46:44;57.52;34.92;69.09;;
81493;Laerm;70900;51.798;10.954;2023-09-19T06:49:11;55.77;36.61;67.30;;
81493;Laerm;70900;51.798;10.954;2023-09-19T06:51:38;58.47;35.49;71.21;;
81493;Laerm;70900;51.798;10.954;2023-09-19T06:54:03;56.76;38.37;71.01;;
81493;Laerm;70900;51.798;10.954;2023-09-19T06:56:30;58.74;37.66;73.36;;
81493;Laerm;70900;51.798;10.954;2023-09-19T06:58:57;54.50;35.03;67.72;;
81493;Laerm;70900;51.798;10.954;2023-09-19T07:01:22;48.34;36.56;62.56;;
81493;Laerm;70900;51.798;10.954;2023-09-19T07:03:47;50.58;36.82;64.26;;
81493;Laerm;70900;51.798;10.954;2023-09-19T07:06:13;49.62;35.02;61.09;;
81493;Laerm;70900;51.798;10.954;2023-09-19T07:08:38;53.76;36.41;66.03;;
81493;Laerm;70900;51.798;10.954;2023-09-19T07:11:03;44.02;34.52;59.15;;
81493;Laerm;70900;51.798;10.954;2023-09-19T07:13:31;56.43;36.16;71.67;;
81493;Laerm;70900;51.798;10.954;2023-09-19T07:15:57;60.03;36.20;78.03;;
81493;Laerm;70900;51.798;10.954;2023-09-19T07:18:23;51.62;35.10;64.33;;
81493;Laerm;70900;51.798;10.954;2023-09-19T07:20:48;52.25;35.52;65.52;;
81493;Laerm;70900;51.798;10.954;2023-09-19T07:23:15;58.87;39.34;75.17;;
81493;Laerm;70900;51.798;10.954;2023-09-19T07:25:40;53.48;37.69;68.40;;
81493;Laerm;70900;51.798;10.954;2023-09-19T07:28:05;49.00;36.43;65.31;;
81493;Laerm;70900;51.798;10.954;2023-09-19T07:30:31;44.85;37.74;54.65;;
81493;Laerm;70900;51.798;10.954;2023-09-19T07:32:56;56.44;40.80;70.93;;
81493;Laerm;70900;51.798;10.954;2023-09-19T07:35:22;52.30;36.28;67.02;;
81493;Laerm;70900;51.798;10.954;2023-09-19T07:37:48;49.94;36.73;67.28;;
81493;Laerm;70900;51.798;10.954;2023-09-19T07:40:14;56.48;39.44;69.85;;
81493;Laerm;70900;51.798;10.954;2023-09-19T07:42:40;56.79;38.44;68.14;;
81493;Laerm;70900;51.798;10.954;2023-09-19T07:45:08;52.71;35.03;68.00;;
81493;Laerm;70900;51.798;10.954;2023-09-19T07:47:34;56.80;39.94;67.68;;
81493;Laerm;70900;51.798;10.954;2023-09-19T07:50:01;62.52;38.71;80.00;;
81493;Laerm;70900;51.798;10.954;2023-09-19T07:52:28;59.07;38.13;70.88;;
81493;Laerm;70900;51.798;10.954;2023-09-19T07:54:53;54.16;36.14;67.70;;
81493;Laerm;70900;51.798;10.954;2023-09-19T07:57:19;58.51;37.51;70.70;;
81493;Laerm;70900;51.798;10.954;2023-09-19T07:59:45;58.29;37.40;70.35;;
81493;Laerm;70900;51.798;10.954;2023-09-19T08:02:10;52.73;36.13;71.06;;
81493;Laerm;70900;51.798;10.954;2023-09-19T08:04:43;56.22;36.91;70.12;;
81493;Laerm;70900;51.798;10.954;2023-09-19T08:07:10;59.13;40.44;68.10;;
81493;Laerm;70900;51.798;10.954;2023-09-19T08:09:36;57.74;40.33;64.22;;
81493;Laerm;70900;51.798;10.954;2023-09-19T08:12:04;59.50;40.04;68.35;;
81493;Laerm;70900;51.798;10.954;2023-09-19T08:14:29;57.44;38.80;67.36;;
81493;Laerm;70900;51.798;10.954;2023-09-19T08:16:57;56.37;41.41;65.51;;
81493;Laerm;70900;51.798;10.954;2023-09-19T08:19:24;57.54;43.52;71.48;;
81493;Laerm;70900;51.798;10.954;2023-09-19T08:21:54;57.92;43.84;71.36;;
81493;Laerm;70900;51.798;10.954;2023-09-19T08:24:20;54.69;39.63;68.18;;
81493;Laerm;70900;51.798;10.954;2023-09-19T08:26:46;56.17;40.29;69.53;;
81493;Laerm;70900;51.798;10.954;2023-09-19T08:29:11;50.13;40.13;63.03;;
81493;Laerm;70900;51.798;10.954;2023-09-19T08:31:37;59.59;37.93;75.63;;
81493;Laerm;70900;51.798;10.954;2023-09-19T08:34:03;62.66;46.32;78.69;;
81493;Laerm;70900;51.798;10.954;2023-09-19T08:36:28;59.92;52.07;70.66;;
81493;Laerm;70900;51.798;10.954;2023-09-19T08:38:54;58.06;53.22;66.22;;
81493;Laerm;70900;51.798;10.954;2023-09-19T08:41:20;57.69;39.75;65.52;;
81493;Laerm;70900;51.798;10.954;2023-09-19T08:43:45;57.79;40.86;68.65;;
81493;Laerm;70900;51.798;10.954;2023-09-19T08:46:14;61.34;40.89;76.75;;
81493;Laerm;70900;51.798;10.954;2023-09-19T08:48:45;58.45;43.57;68.03;;
81493;Laerm;70900;51.798;10.954;2023-09-19T08:51:17;53.61;42.07;64.65;;
81493;Laerm;70900;51.798;10.954;2023-09-19T08:56:28;56.69;48.19;69.07;;
81493;Laerm;70900;51.798;10.954;2023-09-19T08:58:55;56.52;46.61;63.34;;
81493;Laerm;70900;51.798;10.954;2023-09-19T09:01:23;59.34;49.14;68.89;;
81493;Laerm;70900;51.798;10.954;2023-09-19T09:03:52;61.32;50.73;68.65;;
81493;Laerm;70900;51.798;10.954;2023-09-19T09:06:19;64.30;48.82;82.36;;
81493;Laerm;70900;51.798;10.954;2023-09-19T09:08:45;59.83;47.29;77.63;;
81493;Laerm;70900;51.798;10.954;2023-09-19T09:11:11;57.78;50.44;65.96;;
81493;Laerm;70900;51.798;10.954;2023-09-19T09:13:36;56.67;41.42;66.56;;
81493;Laerm;70900;51.798;10.954;2023-09-19T09:16:02;57.81;41.50;69.44;;
81493;Laerm;70900;51.798;10.954;2023-09-19T09:18:28;60.22;52.88;70.29;;
81493;Laerm;70900;51.798;10.954;2023-09-19T09:20:55;57.22;45.62;67.88;;
81493;Laerm;70900;51.798;10.954;2023-09-19T09:23:21;60.91;44.84;73.52;;
81493;Laerm;70900;51.798;10.954;2023-09-19T09:25:47;56.48;44.61;69.97;;
81493;Laerm;70900;51.798;10.954;2023-09-19T09:28:12;52.93;43.02;68.16;;
81493;Laerm;70900;51.798;10.954;2023-09-19T09:30:44;55.11;44.40;69.24;;
81493;Laerm;70900;51.798;10.954;2023-09-19T09:33:11;50.89;43.57;63.10;;
81493;Laerm;70900;51.798;10.954;2023-09-19T09:35:58;59.50;42.72;73.82;;
81493;Laerm;70900;51.798;10.954;2023-09-19T09:38:25;51.45;39.79;68.52;;
81493;Laerm;70900;51.798;10.954;2023-09-19T09:40:57;57.31;44.83;74.41;;
81493;Laerm;70900;51.798;10.954;2023-09-19T09:43:38;60.31;43.48;80.62;;
81493;Laerm;70900;51.798;10.954;2023-09-19T09:46:06;52.01;40.28;64.97;;
81493;Laerm;70900;51.798;10.954;2023-09-19T09:48:36;62.52;44.92;80.29;;
81493;Laerm;70900;51.798;10.954;2023-09-19T09:51:04;52.62;40.79;66.79;;
81493;Laerm;70900;51.798;10.954;2023-09-19T09:53:33;61.19;41.16;76.26;;
81493;Laerm;70900;51.798;10.954;2023-09-19T09:56:06;61.26;42.75;83.66;;
81493;Laerm;70900;51.798;10.954;2023-09-19T09:58:35;55.42;41.68;71.45;;
81493;Laerm;70900;51.798;10.954;2023-09-19T10:01:01;56.31;40.40;71.99;;
81493;Laerm;70900;51.798;10.954;2023-09-19T10:03:37;57.46;43.05;69.51;;
81493;Laerm;70900;51.798;10.954;2023-09-19T10:06:11;54.33;40.26;74.66;;
81493;Laerm;70900;51.798;10.954;2023-09-19T10:09:05;60.96;41.52;81.90;;
81493;Laerm;70900;51.798;10.954;2023-09-19T10:11:45;52.28;40.50;65.14;;
81493;Laerm;70900;51.798;10.954;2023-09-19T10:14:13;65.46;39.74;88.92;;
81493;Laerm;70900;51.798;10.954;2023-09-19T10:16:41;46.39;38.36;61.83;;
81493;Laerm;70900;51.798;10.954;2023-09-19T10:19:10;55.46;41.57;64.78;;
81493;Laerm;70900;51.798;10.954;2023-09-19T10:21:40;54.42;38.01;67.21;;
81493;Laerm;70900;51.798;10.954;2023-09-19T10:24:08;58.11;39.24;71.05;;
81493;Laerm;70900;51.798;10.954;2023-09-19T10:26:34;58.52;43.77;76.19;;
81493;Laerm;70900;51.798;10.954;2023-09-19T10:29:01;58.23;41.87;69.88;;
81493;Laerm;70900;51.798;10.954;2023-09-19T10:31:30;56.74;41.27;67.92;;
81493;Laerm;70900;51.798;10.954;2023-09-19T10:34:02;55.10;43.46;80.16;;
81493;Laerm;70900;51.798;10.954;2023-09-19T10:36:27;56.31;43.14;72.54;;
81493;Laerm;70900;51.798;10.954;2023-09-19T10:38:58;60.04;43.42;77.77;;
81493;Laerm;70900;51.798;10.954;2023-09-19T10:41:27;57.89;44.44;69.93;;
81493;Laerm;70900;51.798;10.954;2023-09-19T10:43:54;55.82;44.67;64.43;;
81493;Laerm;70900;51.798;10.954;2023-09-19T10:46:21;60.07;40.94;76.72;;
81493;Laerm;70900;51.798;10.954;2023-09-19T10:48:46;52.05;40.95;64.63;;
81493;Laerm;70900;51.798;10.954;2023-09-19T10:51:18;45.25;40.16;50.51;;
81493;Laerm;70900;51.798;10.954;2023-09-19T10:53:50;51.57;41.19;67.22;;
81493;Laerm;70900;51.798;10.954;2023-09-19T10:56:19;51.71;41.49;68.53;;
81493;Laerm;70900;51.798;10.954;2023-09-19T10:58:46;52.84;41.83;64.34;;
81493;Laerm;70900;51.798;10.954;2023-09-19T11:01:13;57.93;43.20;73.24;;
81493;Laerm;70900;51.798;10.954;2023-09-19T11:03:40;56.63;42.85;66.85;;
81493;Laerm;70900;51.798;10.954;2023-09-19T11:06:16;58.82;44.03;71.89;;
81493;Laerm;70900;51.798;10.954;2023-09-19T11:08:53;61.75;41.42;82.53;;
81493;Laerm;70900;51.798;10.954;2023-09-19T11:22:13;49.39;40.08;65.31;;
81493;Laerm;70900;51.798;10.954;2023-09-19T11:24:38;49.29;39.77;66.36;;
81493;Laerm;70900;51.798;10.954;2023-09-19T11:27:10;54.50;41.70;71.32;;
81493;Laerm;70900;51.798;10.954;2023-09-19T11:29:39;55.34;42.46;68.03;;
81493;Laerm;70900;51.798;10.954;2023-09-19T11:32:05;53.93;43.43;66.26;;
81493;Laerm;70900;51.798;10.954;2023-09-19T11:39:40;55.80;42.88;74.88;;
81493;Laerm;70900;51.798;10.954;2023-09-19T11:44:52;52.53;41.82;64.34;;
81493;Laerm;70900;51.798;10.954;2023-09-19T11:47:21;62.41;42.89;81.32;;
81493;Laerm;70900;51.798;10.954;2023-09-19T11:49:47;56.07;43.93;71.48;;
81493;Laerm;70900;51.798;10.954;2023-09-19T11:52:18;56.52;41.52;73.37;;
81493;Laerm;70900;51.798;10.954;2023-09-19T11:54:47;56.77;41.61;69.37;;
81493;Laerm;70900;51.798;10.954;2023-09-19T11:57:22;51.48;38.27;66.17;;
81493;Laerm;70900;51.798;10.954;2023-09-19T11:59:47;48.04;39.25;62.49;;
81493;Laerm;70900;51.798;10.954;2023-09-19T12:02:13;54.75;39.22;67.98;;
81493;Laerm;70900;51.798;10.954;2023-09-19T12:04:44;54.73;41.82;68.29;;
81493;Laerm;70900;51.798;10.954;2023-09-19T12:07:16;52.80;37.77;73.08;;
81493;Laerm;70900;51.798;10.954;2023-09-19T12:09:42;54.92;38.09;64.07;;
81493;Laerm;70900;51.798;10.954;2023-09-19T12:12:12;48.28;41.17;56.21;;
81493;Laerm;70900;51.798;10.954;2023-09-19T12:14:47;51.37;38.81;67.76;;
81493;Laerm;70900;51.798;10.954;2023-09-19T12:17:13;53.94;41.82;66.23;;
81493;Laerm;70900;51.798;10.954;2023-09-19T12:19:39;57.67;40.07;69.84;;
81493;Laerm;70900;51.798;10.954;2023-09-19T12:22:04;50.93;38.04;65.18;;
81493;Laerm;70900;51.798;10.954;2023-09-19T12:24:30;58.78;41.44;75.15;;
81493;Laerm;70900;51.798;10.954;2023-09-19T12:27:02;57.28;39.97;67.13;;
81493;Laerm;70900;51.798;10.954;2023-09-19T12:29:30;54.95;39.32;66.90;;
81493;Laerm;70900;51.798;10.954;2023-09-19T12:31:59;55.21;39.47;67.59;;
81493;Laerm;70900;51.798;10.954;2023-09-19T12:34:25;58.28;39.80;72.13;;
81493;Laerm;70900;51.798;10.954;2023-09-19T12:37:03;57.54;40.38;70.42;;
81493;Laerm;70900;51.798;10.954;2023-09-19T12:39:31;53.92;38.73;66.49;;
81493;Laerm;70900;51.798;10.954;2023-09-19T12:41:56;49.89;40.09;63.25;;
81493;Laerm;70900;51.798;10.954;2023-09-19T12:44:22;57.15;43.55;68.02;;
81493;Laerm;70900;51.798;10.954;2023-09-19T12:46:50;57.77;40.52;69.23;;
81493;Laerm;70900;51.798;10.954;2023-09-19T12:49:18;53.09;39.80;63.49;;
81493;Laerm;70900;51.798;10.954;2023-09-19T12:51:45;56.61;41.32;66.96;;
81493;Laerm;70900;51.798;10.954;2023-09-19T12:54:10;60.10;42.71;74.00;;
81493;Laerm;70900;51.798;10.954;2023-09-19T12:56:45;56.34;43.25;69.70;;
81493;Laerm;70900;51.798;10.954;2023-09-19T12:59:12;54.21;38.62;69.53;;
81493;Laerm;70900;51.798;10.954;2023-09-19T13:01:38;55.26;39.93;71.64;;
81493;Laerm;70900;51.798;10.954;2023-09-19T13:06:37;57.23;41.98;69.63;;
81493;Laerm;70900;51.798;10.954;2023-09-19T13:09:10;51.84;39.20;64.94;;
81493;Laerm;70900;51.798;10.954;2023-09-19T13:11:36;56.44;38.49;68.12;;
81493;Laerm;70900;51.798;10.954;2023-09-19T13:14:14;57.78;40.99;72.45;;
81493;Laerm;70900;51.798;10.954;2023-09-19T13:16:56;55.61;43.31;68.39;;
81493;Laerm;70900;51.798;10.954;2023-09-19T13:19:40;56.74;44.69;69.22;;
81493;Laerm;70900;51.798;10.954;2023-09-19T13:24:50;57.04;40.74;71.52;;
81493;Laerm;70900;51.798;10.954;2023-09-19T13:27:16;55.08;40.28;65.89;;
81493;Laerm;70900;51.798;10.954;2023-09-19T13:29:41;53.41;39.79;69.13;;
81493;Laerm;70900;51.798;10.954;2023-09-19T13:32:07;58.48;38.69;75.58;;
81493;Laerm;70900;51.798;10.954;2023-09-19T13:34:36;61.47;43.47;76.97;;
81493;Laerm;70900;51.798;10.954;2023-09-19T13:37:02;58.43;44.10;74.26;;
81493;Laerm;70900;51.798;10.954;2023-09-19T13:39:29;56.32;41.72;64.56;;
81493;Laerm;70900;51.798;10.954;2023-09-19T13:41:55;57.91;43.12;76.21;;
81493;Laerm;70900;51.798;10.954;2023-09-19T13:44:20;60.99;40.07;75.16;;
81493;Laerm;70900;51.798;10.954;2023-09-19T13:46:45;55.14;42.36;69.00;;
81493;Laerm;70900;51.798;10.954;2023-09-19T13:49:11;56.88;40.55;73.44;;
81493;Laerm;70900;51.798;10.954;2023-09-19T13:51:37;65.12;42.48;81.11;;
81493;Laerm;70900;51.798;10.954;2023-09-19T13:54:02;61.45;44.83;77.07;;
81493;Laerm;70900;51.798;10.954;2023-09-19T13:56:28;59.83;45.23;74.31;;
81493;Laerm;70900;51.798;10.954;2023-09-19T13:58:53;56.09;43.98;68.12;;
81493;Laerm;70900;51.798;10.954;2023-09-19T14:01:19;57.68;47.39;69.45;;
81493;Laerm;70900;51.798;10.954;2023-09-19T14:03:45;55.53;38.30;68.65;;
81493;Laerm;70900;51.798;10.954;2023-09-19T14:06:12;54.78;38.70;66.92;;
81493;Laerm;70900;51.798;10.954;2023-09-19T14:08:37;56.62;40.30;68.66;;
81493;Laerm;70900;51.798;10.954;2023-09-19T14:11:05;58.24;43.92;73.63;;
81493;Laerm;70900;51.798;10.954;2023-09-19T14:13:31;55.70;42.74;68.09;;
81493;Laerm;70900;51.798;10.954;2023-09-19T14:15:56;58.36;39.54;70.13;;
81493;Laerm;70900;51.798;10.954;2023-09-19T14:18:23;55.79;42.48;73.98;;
81493;Laerm;70900;51.798;10.954;2023-09-19T14:20:49;57.59;39.47;70.96;;
81493;Laerm;70900;51.798;10.954;2023-09-19T14:23:18;53.38;40.22;67.39;;
81493;Laerm;70900;51.798;10.954;2023-09-19T14:25:45;56.75;39.13;70.23;;
81493;Laerm;70900;51.798;10.954;2023-09-19T14:28:11;58.72;42.52;68.65;;
81493;Laerm;70900;51.798;10.954;2023-09-19T14:30:39;57.19;42.57;69.26;;
81493;Laerm;70900;51.798;10.954;2023-09-19T14:33:04;60.38;41.57;77.05;;
81493;Laerm;70900;51.798;10.954;2023-09-19T14:35:31;56.42;40.71;70.41;;
81493;Laerm;70900;51.798;10.954;2023-09-19T14:37:56;56.91;40.46;68.21;;
81493;Laerm;70900;51.798;10.954;2023-09-19T14:40:22;51.83;42.28;64.44;;